createdAt,value
2023-02-14T00:01:38.230Z,102112.81
2023-02-14T00:04:07.412Z,102119.16
2023-02-14T00:06:38.747Z,102127.22
2023-02-14T00:09:07.488Z,102128.81
2023-02-14T00:11:35.200Z,102128.44
2023-02-14T00:14:20.353Z,102117.25
2023-02-14T00:16:47.895Z,102123.66
2023-02-14T00:19:18.421Z,102125.66
2023-02-14T00:21:46.763Z,102122.25
2023-02-14T00:24:16.332Z,102120.75
2023-02-14T00:26:44.300Z,102123.50
2023-02-14T00:29:13.789Z,102119.06
2023-02-14T00:31:42.525Z,102119.81
2023-02-14T00:34:11.294Z,102116.03
2023-02-14T00:36:41.276Z,102116.41
2023-02-14T00:39:10.924Z,102110.97
2023-02-14T00:41:39.086Z,102115.44
2023-02-14T00:44:07.834Z,102114.69
2023-02-14T00:46:35.906Z,102123.31
2023-02-14T00:49:03.746Z,102117.91
2023-02-14T00:51:31.638Z,102119.31
2023-02-14T00:54:00.548Z,102118.88
2023-02-14T00:56:28.415Z,102126.97
2023-02-14T00:58:56.160Z,102126.91
2023-02-14T01:01:23.876Z,102122.16
2023-02-14T01:03:51.496Z,102128.31
2023-02-14T01:06:20.355Z,102121.97
2023-02-14T01:08:47.859Z,102118.47
2023-02-14T01:11:19.792Z,102123.47
2023-02-14T01:13:49.566Z,102122.38
2023-02-14T01:16:21.925Z,102118.28
2023-02-14T01:18:50.604Z,102127.66
2023-02-14T01:21:23.428Z,102129.25
2023-02-14T01:23:52.962Z,102120.81
2023-02-14T01:26:23.562Z,102121.00
2023-02-14T01:28:51.497Z,102123.16
2023-02-14T01:31:21.870Z,102124.31
2023-02-14T01:33:50.997Z,102122.72
2023-02-14T01:36:21.185Z,102136.59
2023-02-14T01:38:51.540Z,102127.41
2023-02-14T01:41:19.492Z,102128.09
2023-02-14T01:43:56.499Z,102132.44
2023-02-14T01:46:26.523Z,102128.19
2023-02-14T01:49:00.092Z,102127.59
2023-02-14T01:51:27.809Z,102135.66
2023-02-14T01:53:55.743Z,102136.03
2023-02-14T01:56:35.867Z,102132.72
2023-02-14T01:59:08.892Z,102127.25
2023-02-14T02:01:39.092Z,102127.34
2023-02-14T02:04:10.330Z,102130.84
2023-02-14T02:06:43.181Z,102131.94
2023-02-14T02:09:16.680Z,102131.84
2023-02-14T02:11:45.323Z,102121.25
2023-02-14T02:14:16.764Z,102128.16
2023-02-14T02:16:58.863Z,102118.69
2023-02-14T02:20:03.410Z,102115.28
2023-02-14T02:22:56.978Z,102118.09
2023-02-14T02:25:45.398Z,102115.28
2023-02-14T02:28:38.401Z,102119.78
2023-02-14T02:31:28.092Z,102120.94
2023-02-14T02:34:27.516Z,102105.66
2023-02-14T02:37:09.812Z,102110.16
2023-02-14T02:39:50.080Z,102111.47
2023-02-14T02:42:28.685Z,102104.66
2023-02-14T02:45:05.676Z,102106.84
2023-02-14T02:47:41.633Z,102104.31
2023-02-14T02:50:41.143Z,102104.25
2023-02-14T02:53:18.093Z,102103.63
2023-02-14T02:56:11.148Z,102100.94
2023-02-14T02:58:46.644Z,102109.72
2023-02-14T03:01:18.402Z,102115.06
2023-02-14T03:04:10.270Z,102114.66
2023-02-14T03:06:37.888Z,102121.91
2023-02-14T03:09:38.326Z,102115.75
2023-02-14T03:12:30.690Z,102122.19
2023-02-14T03:15:10.391Z,102121.00
2023-02-14T03:17:50.394Z,102124.31
2023-02-14T03:20:23.140Z,102125.53
2023-02-14T03:22:56.443Z,102116.75
2023-02-14T03:25:36.655Z,102113.91
2023-02-14T03:28:15.544Z,102114.81
2023-02-14T03:30:52.449Z,102110.81
2023-02-14T03:33:26.711Z,102117.78
2023-02-14T03:36:01.826Z,102109.69
2023-02-14T03:38:35.499Z,102114.19
2023-02-14T03:41:05.804Z,102110.91
2023-02-14T03:43:38.263Z,102109.19
2023-02-14T03:46:10.239Z,102105.88
2023-02-14T03:48:40.076Z,102118.81
2023-02-14T03:51:11.476Z,102111.16
2023-02-14T03:53:44.376Z,102116.63
2023-02-14T03:56:18.532Z,102120.34
2023-02-14T03:58:51.609Z,102120.59
2023-02-14T04:01:24.223Z,102122.22
2023-02-14T04:03:56.377Z,102122.22
2023-02-14T04:06:24.354Z,102120.94
2023-02-14T04:08:51.874Z,102126.56
2023-02-14T04:11:19.539Z,102123.78
2023-02-14T04:13:48.365Z,102128.19
2023-02-14T04:16:15.846Z,102127.44
2023-02-14T04:19:01.205Z,102124.88
2023-02-14T04:21:28.849Z,102127.16
2023-02-14T04:23:56.384Z,102130.38
2023-02-14T04:26:24.436Z,102127.31
2023-02-14T04:28:53.392Z,102130.38
2023-02-14T04:31:21.048Z,102132.53
2023-02-14T04:33:53.650Z,102137.19
2023-02-14T04:36:21.254Z,102135.53
2023-02-14T04:38:48.740Z,102138.97
2023-02-14T04:41:16.518Z,102128.72
2023-02-14T04:43:46.097Z,102136.34
2023-02-14T04:46:15.038Z,102139.72
2023-02-14T04:48:42.996Z,102141.44
2023-02-14T04:51:10.531Z,102134.94
2023-02-14T04:53:40.253Z,102141.66
2023-02-14T04:56:08.776Z,102146.59
2023-02-14T04:58:37.784Z,102148.59
2023-02-14T05:01:05.392Z,102142.06
2023-02-14T05:03:34.334Z,102145.19
2023-02-14T05:06:01.983Z,102147.84
2023-02-14T05:08:29.511Z,102142.38
2023-02-14T05:10:57.521Z,102154.50
2023-02-14T05:13:25.187Z,102146.91
2023-02-14T05:15:52.873Z,102145.28
2023-02-14T05:18:20.433Z,102148.53
2023-02-14T05:20:52.085Z,102148.03
2023-02-14T05:23:19.716Z,102151.66
2023-02-14T05:25:48.844Z,102150.53
2023-02-14T05:28:16.564Z,102152.06
2023-02-14T05:30:44.253Z,102145.56
2023-02-14T05:33:11.917Z,102147.41
2023-02-14T05:35:39.598Z,102152.91
2023-02-14T05:38:10.650Z,102151.47
2023-02-14T05:40:38.251Z,102150.63
2023-02-14T05:43:05.980Z,102140.16
2023-02-14T05:45:33.634Z,102153.13
2023-02-14T05:48:01.337Z,102145.44
2023-02-14T05:50:29.011Z,102142.69
2023-02-14T05:52:57.437Z,102145.50
2023-02-14T05:55:30.038Z,102144.47
2023-02-14T05:57:57.537Z,102148.84
2023-02-14T06:00:26.834Z,102144.50
2023-02-14T06:02:54.927Z,102144.31
2023-02-14T06:05:22.814Z,102150.97
2023-02-14T06:07:53.298Z,102144.66
2023-02-14T06:10:22.703Z,102145.50
2023-02-14T06:12:53.460Z,102149.69
2023-02-14T06:15:21.474Z,102146.09
2023-02-14T06:17:52.655Z,102150.38
2023-02-14T06:20:20.641Z,102135.44
2023-02-14T06:22:49.902Z,102142.19
2023-02-14T06:25:18.007Z,102132.13
2023-02-14T06:27:49.255Z,102141.69
2023-02-14T06:30:19.584Z,102145.34
2023-02-14T06:32:47.427Z,102144.41
2023-02-14T06:35:15.528Z,102139.97
2023-02-14T06:37:45.101Z,102149.34
2023-02-14T06:40:14.500Z,102146.94
2023-02-14T06:42:42.595Z,102147.53
2023-02-14T06:45:11.140Z,102149.16
2023-02-14T06:47:40.030Z,102137.72
2023-02-14T06:50:11.478Z,102140.03
2023-02-14T06:52:39.640Z,102137.91
2023-02-14T06:55:11.708Z,102136.34
2023-02-14T06:57:40.164Z,102128.22
2023-02-14T07:00:09.964Z,102130.81
2023-02-14T07:02:37.766Z,102122.94
2023-02-14T07:05:09.811Z,102125.16
2023-02-14T07:07:37.382Z,102126.47
2023-02-14T07:10:18.623Z,102131.16
2023-02-14T07:12:46.154Z,102125.44
2023-02-14T07:15:14.327Z,102124.22
2023-02-14T07:17:41.954Z,102132.69
2023-02-14T07:20:13.420Z,102125.47
2023-02-14T07:22:40.968Z,102124.66
2023-02-14T07:25:09.354Z,102121.47
2023-02-14T07:27:37.161Z,102127.69
2023-02-14T07:30:05.544Z,102130.91
2023-02-14T07:32:34.160Z,102129.63
2023-02-14T07:35:02.774Z,102128.13
2023-02-14T07:37:32.935Z,102116.72
2023-02-14T07:40:00.910Z,102129.69
2023-02-14T07:42:28.937Z,102131.28
2023-02-14T07:44:56.812Z,102128.53
2023-02-14T07:47:24.994Z,102137.75
2023-02-14T07:49:53.540Z,102135.53
2023-02-14T07:52:22.166Z,102130.25
2023-02-14T07:54:51.004Z,102122.59
2023-02-14T07:57:19.596Z,102128.31
2023-02-14T07:59:47.106Z,102130.56
2023-02-14T08:02:14.753Z,102125.72
2023-02-14T08:04:42.353Z,102134.47
2023-02-14T08:07:09.834Z,102127.88
2023-02-14T08:09:38.467Z,102129.03
2023-02-14T08:12:25.313Z,102130.91
2023-02-14T08:14:52.815Z,102127.75
2023-02-14T08:17:20.350Z,102124.09
2023-02-14T08:19:47.831Z,102131.53
2023-02-14T08:22:22.363Z,102128.13
2023-02-14T08:24:50.527Z,102127.06
2023-02-14T08:27:19.349Z,102129.56
2023-02-14T08:29:46.893Z,102131.06
2023-02-14T08:32:15.821Z,102126.25
2023-02-14T08:34:43.494Z,102136.06
2023-02-14T08:37:10.993Z,102129.09
2023-02-14T08:39:39.731Z,102120.03
2023-02-14T08:42:08.464Z,102128.72
2023-02-14T08:44:37.340Z,102126.13
2023-02-14T08:47:04.937Z,102129.56
2023-02-14T08:49:32.481Z,102124.53
2023-02-14T08:51:59.997Z,102135.03
2023-02-14T08:54:27.521Z,102133.13
2023-02-14T08:56:55.020Z,102130.91
2023-02-14T08:59:22.760Z,102126.88
2023-02-14T09:01:52.706Z,102121.69
2023-02-14T09:04:21.490Z,102120.28
2023-02-14T09:06:49.077Z,102125.66
2023-02-14T09:09:17.414Z,102124.25
2023-02-14T09:11:45.093Z,102124.63
2023-02-14T09:14:12.618Z,102127.56
2023-02-14T09:16:40.821Z,102116.13
2023-02-14T09:19:09.772Z,102117.72
2023-02-14T09:21:37.350Z,102121.13
2023-02-14T09:24:04.998Z,102115.50
2023-02-14T09:26:32.685Z,102121.66
2023-02-14T09:29:00.348Z,102110.38
2023-02-14T09:31:28.018Z,102112.97
2023-02-14T09:33:56.256Z,102114.19
2023-02-14T09:36:25.145Z,102108.50
2023-02-14T09:38:52.649Z,102101.66
2023-02-14T09:41:49.448Z,102111.03
2023-02-14T09:44:26.748Z,102117.50
2023-02-14T09:46:57.688Z,102120.34
2023-02-14T09:49:33.928Z,102121.25
2023-02-14T09:52:09.237Z,102121.69
2023-02-14T09:54:38.396Z,102109.28
2023-02-14T09:57:17.457Z,102109.25
2023-02-14T09:59:52.182Z,102107.34
2023-02-14T10:02:41.151Z,102104.94
2023-02-14T10:05:14.658Z,102117.88
2023-02-14T10:07:57.093Z,102107.88
2023-02-14T10:10:30.710Z,102104.00
2023-02-14T10:13:04.053Z,102107.69
2023-02-14T10:15:35.237Z,102107.22
2023-02-14T10:18:10.980Z,102105.88
2023-02-14T10:20:42.570Z,102106.50
2023-02-14T10:23:30.146Z,102108.94
2023-02-14T10:26:01.938Z,102105.66
2023-02-14T10:28:33.597Z,102107.13
2023-02-14T10:31:19.440Z,102107.91
2023-02-14T10:33:56.327Z,102103.28
2023-02-14T10:36:39.375Z,102106.31
2023-02-14T10:39:24.346Z,102105.91
2023-02-14T10:41:57.696Z,102104.19
2023-02-14T10:44:43.356Z,102107.34
2023-02-14T10:47:24.533Z,102096.09
2023-02-14T10:49:59.053Z,102088.22
2023-02-14T10:52:34.276Z,102090.59
2023-02-14T10:55:20.266Z,102086.97
2023-02-14T10:57:58.288Z,102080.06
2023-02-14T11:00:29.782Z,102076.88
2023-02-14T11:02:58.910Z,102073.81
2023-02-14T11:05:34.262Z,102071.47
2023-02-14T11:08:02.159Z,102068.78
2023-02-14T11:10:36.008Z,102064.03
2023-02-14T11:13:03.559Z,102065.50
2023-02-14T11:15:34.647Z,102071.66
2023-02-14T11:18:22.655Z,102057.06
2023-02-14T11:21:02.174Z,102063.25
2023-02-14T11:23:34.189Z,102052.28
2023-02-14T11:26:04.847Z,102046.38
2023-02-14T11:28:32.909Z,102043.44
2023-02-14T11:31:01.209Z,102044.81
2023-02-14T11:33:35.926Z,102037.19
2023-02-14T11:36:06.176Z,102032.59
2023-02-14T11:38:38.254Z,102035.59
2023-02-14T11:41:09.277Z,102028.56
2023-02-14T11:43:38.234Z,102031.25
2023-02-14T11:46:15.332Z,102025.81
2023-02-14T11:48:58.984Z,102017.22
2023-02-14T11:51:29.474Z,102012.13
2023-02-14T11:54:04.670Z,102005.56
2023-02-14T11:56:50.497Z,102011.28
2023-02-14T11:59:31.087Z,102012.38
2023-02-14T12:02:02.076Z,102002.03
2023-02-14T12:04:45.787Z,101997.84
2023-02-14T12:07:21.193Z,101987.75
2023-02-14T12:09:49.741Z,101972.22
2023-02-14T12:12:26.733Z,101996.88
2023-02-14T12:15:14.326Z,101987.03
2023-02-14T12:17:47.997Z,101984.84
2023-02-14T12:20:20.418Z,101987.19
2023-02-14T12:22:57.660Z,101981.13
2023-02-14T12:25:27.536Z,101976.13
2023-02-14T12:28:04.080Z,101979.44
2023-02-14T12:30:34.728Z,101967.13
2023-02-14T12:33:04.915Z,101961.19
2023-02-14T12:35:45.670Z,101965.94
2023-02-14T12:38:20.064Z,101966.03
2023-02-14T12:41:00.699Z,101967.19
2023-02-14T12:43:52.411Z,101951.72
2023-02-14T12:46:42.690Z,101947.66
2023-02-14T12:49:34.057Z,101950.75
2023-02-14T12:52:19.550Z,101939.84
2023-02-14T12:55:02.861Z,101939.25
2023-02-14T12:57:41.220Z,101936.25
2023-02-14T13:00:22.129Z,101937.94
2023-02-14T13:03:17.094Z,101935.00
2023-02-14T13:05:56.712Z,101925.50
2023-02-14T13:08:38.520Z,101921.34
2023-02-14T13:11:12.859Z,101917.69
2023-02-14T13:13:53.276Z,101907.78
2023-02-14T13:16:28.059Z,101905.31
2023-02-14T13:19:04.434Z,101907.88
2023-02-14T13:21:37.515Z,101901.00
2023-02-14T13:24:16.028Z,101897.78
2023-02-14T13:26:48.452Z,101886.00
2023-02-14T13:29:23.524Z,101881.59
2023-02-14T13:31:55.133Z,101889.19
2023-02-14T13:34:29.751Z,101890.38
2023-02-14T13:37:00.257Z,101881.38
2023-02-14T13:39:37.792Z,101878.22
2023-02-14T13:42:07.235Z,101871.66
2023-02-14T13:44:46.329Z,101868.56
2023-02-14T13:47:20.912Z,101865.38
2023-02-14T13:49:51.706Z,101868.78
2023-02-14T13:52:45.795Z,101869.09
2023-02-14T13:55:19.670Z,101872.00
2023-02-14T13:57:48.271Z,101864.88
2023-02-14T14:00:37.364Z,101859.28
2023-02-14T14:03:08.178Z,101862.47
2023-02-14T14:06:02.965Z,101853.16
2023-02-14T14:08:47.314Z,101853.91
2023-02-14T14:11:56.490Z,101848.41
2023-02-14T14:14:39.846Z,101848.56
2023-02-14T14:17:25.886Z,101841.88
2023-02-14T14:19:55.423Z,101842.88
2023-02-14T14:22:23.241Z,101836.34
2023-02-14T14:24:59.303Z,101843.25
2023-02-14T14:27:32.860Z,101841.06
2023-02-14T14:30:17.689Z,101833.81
2023-02-14T14:32:45.675Z,101829.56
2023-02-14T14:35:21.309Z,101826.28
2023-02-14T14:37:51.704Z,101822.34
2023-02-14T14:40:27.534Z,101827.91
2023-02-14T14:43:06.393Z,101825.16
2023-02-14T14:45:34.259Z,101825.41
2023-02-14T14:48:11.900Z,101826.75
2023-02-14T14:50:45.791Z,101823.22
2023-02-14T14:53:22.551Z,101803.53
2023-02-14T14:55:55.993Z,101803.72
2023-02-14T14:58:39.607Z,101806.22
2023-02-14T15:01:09.326Z,101796.19
2023-02-14T15:03:40.643Z,101799.88
2023-02-14T15:06:19.710Z,101803.44
2023-02-14T15:08:50.590Z,101793.63
2023-02-14T15:11:37.333Z,101793.44
2023-02-14T15:14:11.003Z,101779.75
2023-02-14T15:16:46.302Z,101781.94
2023-02-14T15:19:21.809Z,101776.69
2023-02-14T15:21:51.102Z,101777.66
2023-02-14T15:24:24.153Z,101780.91
2023-02-14T15:26:53.501Z,101778.19
2023-02-14T15:29:24.375Z,101774.09
2023-02-14T15:31:53.159Z,101771.75
2023-02-14T15:34:23.705Z,101771.03
2023-02-14T15:36:56.102Z,101770.28
2023-02-14T15:39:27.629Z,101765.78
2023-02-14T15:41:55.609Z,101766.22
2023-02-14T15:44:25.743Z,101764.16
2023-02-14T15:46:57.177Z,101759.75
2023-02-14T15:49:31.688Z,101764.84
2023-02-14T15:52:02.703Z,101755.94
2023-02-14T15:54:36.512Z,101767.50
2023-02-14T15:57:06.044Z,101759.28
2023-02-14T15:59:38.715Z,101753.00
2023-02-14T16:02:28.321Z,101755.22
2023-02-14T16:05:03.141Z,101754.78
2023-02-14T16:07:32.233Z,101758.75
2023-02-14T16:10:24.396Z,101759.03
2023-02-14T16:12:57.626Z,101763.63
2023-02-14T16:15:27.241Z,101757.47
2023-02-14T16:17:56.084Z,101762.03
2023-02-14T16:20:29.984Z,101773.06
2023-02-14T16:23:28.095Z,101769.75
2023-02-14T16:25:58.559Z,101767.44
2023-02-14T16:28:32.124Z,101770.47
2023-02-14T16:31:02.873Z,101771.50
2023-02-14T16:33:33.741Z,101770.34
2023-02-14T16:36:06.387Z,101774.13
2023-02-14T16:38:42.357Z,101779.19
2023-02-14T16:41:18.875Z,101778.09
2023-02-14T16:43:47.851Z,101779.97
2023-02-14T16:46:25.866Z,101779.97
2023-02-14T16:48:54.591Z,101779.44
2023-02-14T16:51:24.795Z,101777.09
2023-02-14T16:53:56.179Z,101778.84
2023-02-14T16:56:27.620Z,101780.69
2023-02-14T16:58:57.795Z,101787.97
2023-02-14T17:01:25.386Z,101795.53
2023-02-14T17:03:53.240Z,101789.63
2023-02-14T17:06:27.507Z,101785.69
2023-02-14T17:08:58.198Z,101788.47
2023-02-14T17:11:27.692Z,101788.47
2023-02-14T17:13:58.886Z,101805.47
2023-02-14T17:16:26.510Z,101802.97
2023-02-14T17:18:54.203Z,101803.53
2023-02-14T17:21:24.758Z,101795.47
2023-02-14T17:23:52.362Z,101805.34
2023-02-14T17:26:21.364Z,101813.41
2023-02-14T17:28:49.026Z,101818.38
2023-02-14T17:31:16.760Z,101819.31
2023-02-14T17:33:44.547Z,101825.69
2023-02-14T17:36:14.769Z,101831.63
2023-02-14T17:38:43.970Z,101832.69
2023-02-14T17:41:15.976Z,101829.53
2023-02-14T17:43:44.922Z,101835.78
2023-02-14T17:46:14.228Z,101836.00
2023-02-14T17:48:45.296Z,101835.16
2023-02-14T17:51:14.178Z,101835.06
2023-02-14T17:53:44.373Z,101836.50
2023-02-14T17:56:13.920Z,101824.84
2023-02-14T17:58:42.257Z,101835.78
2023-02-14T18:01:13.005Z,101828.91
2023-02-14T18:03:41.178Z,101826.66
2023-02-14T18:06:11.244Z,101823.25
2023-02-14T18:08:43.470Z,101824.72
2023-02-14T18:11:13.121Z,101815.38
2023-02-14T18:13:40.792Z,101822.59
2023-02-14T18:16:10.238Z,101820.72
2023-02-14T18:18:40.459Z,101826.66
2023-02-14T18:21:10.087Z,101814.75
2023-02-14T18:23:38.187Z,101822.53
2023-02-14T18:26:07.640Z,101823.88
2023-02-14T18:28:36.126Z,101820.72
2023-02-14T18:31:05.288Z,101817.75
2023-02-14T18:33:35.622Z,101808.72
2023-02-14T18:36:05.390Z,101817.06
2023-02-14T18:38:32.952Z,101812.81
2023-02-14T18:41:03.266Z,101812.25
2023-02-14T18:43:31.031Z,101816.69
2023-02-14T18:46:03.746Z,101805.81
2023-02-14T18:48:31.756Z,101807.00
2023-02-14T18:51:07.225Z,101810.81
2023-02-14T18:53:34.949Z,101811.88
2023-02-14T18:56:04.979Z,101804.16
2023-02-14T18:58:33.430Z,101795.28
2023-02-14T19:01:08.989Z,101795.16
2023-02-14T19:03:36.661Z,101791.81
2023-02-14T19:06:04.479Z,101791.94
2023-02-14T19:08:35.861Z,101788.97
2023-02-14T19:11:03.822Z,101780.16
2023-02-14T19:13:32.174Z,101785.19
2023-02-14T19:16:00.379Z,101784.63
2023-02-14T19:18:28.115Z,101775.47
2023-02-14T19:20:55.654Z,101778.91
2023-02-14T19:23:23.956Z,101789.78
2023-02-14T19:25:53.713Z,101790.16
2023-02-14T19:28:21.414Z,101789.22
2023-02-14T19:30:51.603Z,101788.59
2023-02-14T19:33:19.396Z,101789.22
2023-02-14T19:35:46.997Z,101788.69
2023-02-14T19:38:14.979Z,101790.38
2023-02-14T19:40:45.516Z,101786.31
2023-02-14T19:43:16.476Z,101777.78
2023-02-14T19:45:44.044Z,101775.59
2023-02-14T19:48:14.087Z,101770.41
2023-02-14T19:50:41.686Z,101773.16
2023-02-14T19:53:09.604Z,101779.78
2023-02-14T19:55:37.494Z,101776.50
2023-02-14T19:58:05.372Z,101772.03
2023-02-14T20:00:36.928Z,101781.38
2023-02-14T20:03:06.032Z,101771.09
2023-02-14T20:05:35.217Z,101776.28
2023-02-14T20:08:03.225Z,101766.44
2023-02-14T20:10:30.735Z,101771.84
2023-02-14T20:12:58.340Z,101763.09
2023-02-14T20:15:29.102Z,101766.69
2023-02-14T20:17:58.282Z,101769.69
2023-02-14T20:20:25.991Z,101776.28
2023-02-14T20:22:53.745Z,101759.63
2023-02-14T20:25:22.709Z,101763.47
2023-02-14T20:27:54.564Z,101755.69
2023-02-14T20:30:23.267Z,101759.63
2023-02-14T20:32:52.242Z,101764.06
2023-02-14T20:35:21.168Z,101766.81
2023-02-14T20:37:48.866Z,101761.13
2023-02-14T20:40:16.475Z,101761.97
2023-02-14T20:42:44.583Z,101764.41
2023-02-14T20:45:12.122Z,101757.06
2023-02-14T20:47:39.607Z,101754.75
2023-02-14T20:50:13.595Z,101748.66
2023-02-14T20:52:42.530Z,101752.84
2023-02-14T20:55:10.336Z,101736.84
2023-02-14T20:57:38.472Z,101740.75
2023-02-14T21:00:08.641Z,101736.53
2023-02-14T21:02:36.188Z,101738.19
2023-02-14T21:05:03.894Z,101731.19
2023-02-14T21:07:31.481Z,101725.06
2023-02-14T21:10:00.566Z,101735.13
2023-02-14T21:12:28.258Z,101730.56
2023-02-14T21:14:55.940Z,101736.66
2023-02-14T21:17:26.414Z,101731.56
2023-02-14T21:19:54.039Z,101737.78
2023-02-14T21:22:24.128Z,101731.44
2023-02-14T21:24:52.270Z,101723.78
2023-02-14T21:27:22.485Z,101724.44
2023-02-14T21:29:50.142Z,101721.03
2023-02-14T21:32:20.585Z,101716.53
2023-02-14T21:34:49.438Z,101723.81
2023-02-14T21:37:17.190Z,101719.25
2023-02-14T21:39:45.507Z,101718.06
2023-02-14T21:42:13.222Z,101714.94
2023-02-14T21:44:59.744Z,101712.75
2023-02-14T21:47:27.296Z,101711.34
2023-02-14T21:50:12.836Z,101705.09
2023-02-14T21:52:40.441Z,101705.81
2023-02-14T21:55:08.384Z,101701.34
2023-02-14T21:57:35.922Z,101704.97
2023-02-14T22:00:05.856Z,101709.25
2023-02-14T22:02:33.535Z,101706.53
2023-02-14T22:05:01.463Z,101698.28
2023-02-14T22:07:29.265Z,101704.97
2023-02-14T22:09:56.880Z,101704.72
2023-02-14T22:12:24.499Z,101701.31
2023-02-14T22:14:52.074Z,101693.50
2023-02-14T22:17:21.150Z,101687.34
2023-02-14T22:19:48.909Z,101690.63
2023-02-14T22:22:16.428Z,101695.56
2023-02-14T22:24:43.953Z,101697.72
2023-02-14T22:27:11.895Z,101697.03
2023-02-14T22:29:39.551Z,101696.75
2023-02-14T22:32:08.347Z,101691.56
2023-02-14T22:34:37.328Z,101690.72
2023-02-14T22:37:04.873Z,101687.88
2023-02-14T22:39:32.578Z,101682.25
2023-02-14T22:42:02.322Z,101689.53
2023-02-14T22:44:30.425Z,101682.75
2023-02-14T22:46:59.267Z,101681.69
2023-02-14T22:49:27.015Z,101680.03
2023-02-14T22:51:55.982Z,101681.34
2023-02-14T22:54:23.540Z,101684.34
2023-02-14T22:56:51.934Z,101673.03
2023-02-14T22:59:22.126Z,101680.13
2023-02-14T23:01:50.772Z,101678.13
2023-02-14T23:04:21.513Z,101684.38
2023-02-14T23:06:49.933Z,101677.06
2023-02-14T23:09:19.396Z,101680.34
2023-02-14T23:11:50.564Z,101677.81
2023-02-14T23:14:36.874Z,101681.59
2023-02-14T23:17:23.385Z,101685.94
2023-02-14T23:20:08.828Z,101687.97
2023-02-14T23:22:39.826Z,101682.88
2023-02-14T23:25:16.930Z,101681.94
2023-02-14T23:27:47.397Z,101680.00
2023-02-14T23:30:17.243Z,101677.53
2023-02-14T23:32:45.440Z,101678.19
2023-02-14T23:35:13.522Z,101685.53
2023-02-14T23:37:42.629Z,101682.88
2023-02-14T23:40:17.994Z,101675.09
2023-02-14T23:42:45.560Z,101685.75
2023-02-14T23:45:30.945Z,101686.31
2023-02-14T23:48:05.054Z,101689.19
2023-02-14T23:50:32.798Z,101689.88
2023-02-14T23:53:00.661Z,101682.25
2023-02-14T23:55:34.196Z,101674.72
2023-02-14T23:58:02.208Z,101681.91
